createdAt,value
2019-01-11T00:00:03.692Z,2.89
2019-01-11T00:02:33.292Z,2.91
2019-01-11T00:05:03.915Z,2.89
2019-01-11T00:07:33.422Z,2.90
2019-01-11T00:10:02.864Z,2.90
2019-01-11T00:12:32.677Z,2.93
2019-01-11T00:15:02.362Z,2.96
2019-01-11T00:17:31.994Z,2.97
2019-01-11T00:20:03.700Z,2.99
2019-01-11T00:22:33.424Z,3.00
2019-01-11T00:25:02.970Z,2.97
2019-01-11T00:27:32.468Z,2.97
2019-01-11T00:30:02.020Z,2.97
2019-01-11T00:32:34.785Z,2.98
2019-01-11T00:35:04.844Z,2.99
2019-01-11T00:37:34.474Z,2.98
2019-01-11T00:40:24.443Z,2.98
2019-01-11T00:42:54.368Z,2.99
2019-01-11T00:45:23.882Z,3.00
2019-01-11T00:47:53.783Z,3.02
2019-01-11T00:50:23.415Z,3.04
2019-01-11T00:52:52.987Z,3.06
2019-01-11T00:55:33.878Z,3.05
2019-01-11T00:58:03.620Z,3.05
2019-01-11T01:00:33.622Z,3.06
2019-01-11T01:03:03.550Z,3.05
2019-01-11T01:06:12.324Z,3.06
2019-01-11T01:08:41.850Z,3.05
2019-01-11T01:11:14.945Z,3.04
2019-01-11T01:14:04.781Z,3.04
2019-01-11T01:16:34.533Z,3.02
2019-01-11T01:19:04.345Z,3.03
2019-01-11T01:24:08.990Z,3.03
2019-01-11T01:26:49.742Z,3.02
2019-01-11T01:29:19.418Z,3.04
2019-01-11T01:31:48.927Z,3.05
2019-01-11T01:34:18.485Z,3.08
2019-01-11T01:36:47.882Z,3.09
2019-01-11T01:39:36.228Z,3.09
2019-01-11T01:42:05.726Z,3.10
2019-01-11T01:44:35.377Z,3.10
2019-01-11T01:47:04.932Z,3.12
2019-01-11T01:49:34.309Z,3.11
2019-01-11T01:52:04.274Z,3.12
2019-01-11T01:54:33.940Z,3.13
2019-01-11T01:57:08.710Z,3.15
2019-01-11T02:02:13.174Z,3.14
2019-01-11T02:10:34.047Z,3.09
2019-01-11T02:18:38.184Z,3.05
2019-01-11T02:23:51.370Z,3.04
2019-01-11T02:26:21.036Z,3.03
2019-01-11T02:28:57.182Z,3.04
2019-01-11T02:31:26.597Z,3.06
2019-01-11T02:33:56.027Z,3.08
2019-01-11T02:39:00.875Z,3.11
2019-01-11T02:41:30.336Z,3.15
2019-01-11T02:44:06.581Z,3.20
2019-01-11T02:46:36.227Z,3.24
2019-01-11T02:49:05.784Z,3.25
2019-01-11T02:51:35.485Z,3.25
2019-01-11T02:54:05.237Z,3.25
2019-01-11T02:56:34.784Z,3.26
2019-01-11T02:59:04.836Z,3.24
2019-01-11T03:01:34.542Z,3.29
2019-01-11T03:04:04.182Z,3.28
2019-01-11T03:06:33.613Z,3.28
2019-01-11T03:09:04.275Z,3.27
2019-01-11T03:11:36.193Z,3.28
2019-01-11T03:14:05.813Z,3.29
2019-01-11T03:16:35.390Z,3.28
2019-01-11T03:19:05.223Z,3.27
2019-01-11T03:24:35.347Z,3.30
2019-01-11T03:27:05.017Z,3.32
2019-01-11T03:29:34.885Z,3.35
2019-01-11T03:32:04.649Z,3.38
2019-01-11T03:37:25.006Z,3.44
2019-01-11T03:39:54.511Z,3.45
2019-01-11T03:42:23.997Z,3.47
2019-01-11T03:44:53.606Z,3.49
2019-01-11T03:47:23.150Z,3.51
2019-01-11T03:49:54.949Z,3.56
2019-01-11T03:52:23.923Z,3.56
2019-01-11T03:54:53.423Z,3.55
2019-01-11T03:57:22.947Z,3.55
2019-01-11T03:59:56.065Z,3.56
2019-01-11T04:02:25.729Z,3.57
2019-01-11T04:04:55.257Z,3.62
2019-01-11T04:07:24.878Z,3.62
2019-01-11T04:09:54.400Z,3.63
2019-01-11T04:12:23.900Z,3.62
2019-01-11T04:14:56.562Z,3.63
2019-01-11T04:17:26.055Z,3.63
2019-01-11T04:20:01.784Z,3.67
2019-01-11T04:22:31.557Z,3.68
2019-01-11T04:25:22.830Z,3.71
2019-01-11T04:27:52.506Z,3.75
2019-01-11T04:30:22.825Z,3.77
2019-01-11T04:32:52.487Z,3.80
2019-01-11T04:35:22.343Z,3.80
2019-01-11T04:37:54.813Z,3.81
2019-01-11T04:40:24.465Z,3.81
2019-01-11T04:42:54.055Z,3.81
2019-01-11T04:45:25.451Z,3.80
2019-01-11T04:47:54.959Z,3.86
2019-01-11T04:50:25.031Z,3.86
2019-01-11T04:52:54.512Z,3.81
2019-01-11T04:55:24.051Z,3.87
2019-01-11T04:57:53.511Z,3.88
2019-01-11T05:00:24.525Z,3.88
2019-01-11T05:05:42.485Z,3.90
2019-01-11T05:08:11.930Z,3.88
2019-01-11T05:10:41.352Z,3.81
2019-01-11T05:13:36.114Z,3.75
2019-01-11T05:16:05.804Z,3.69
2019-01-11T05:18:35.251Z,3.68
2019-01-11T05:21:05.240Z,3.69
2019-01-11T05:23:34.757Z,3.72
2019-01-11T05:26:15.986Z,3.71
2019-01-11T05:28:45.599Z,3.78
2019-01-11T05:31:15.088Z,3.81
2019-01-11T05:34:03.581Z,3.90
2019-01-11T05:36:33.013Z,3.90
2019-01-11T05:39:02.437Z,3.96
2019-01-11T05:41:50.995Z,3.99
2019-01-11T05:44:20.508Z,4.07
2019-01-11T05:46:50.051Z,4.07
2019-01-11T05:49:19.569Z,4.05
2019-01-11T05:52:08.006Z,4.06
2019-01-11T05:54:37.589Z,4.06
2019-01-11T05:57:07.144Z,4.02
2019-01-11T05:59:36.555Z,3.97
2019-01-11T06:02:06.386Z,3.94
2019-01-11T06:04:56.462Z,3.93
2019-01-11T06:07:44.915Z,3.93
2019-01-11T06:10:16.067Z,3.94
2019-01-11T06:12:45.489Z,3.94
2019-01-11T06:15:15.465Z,3.95
2019-01-11T06:17:44.912Z,3.97
2019-01-11T06:20:16.092Z,3.94
2019-01-11T06:22:45.610Z,3.93
2019-01-11T06:25:15.042Z,3.86
2019-01-11T06:27:55.767Z,3.86
2019-01-11T06:30:25.488Z,3.79
2019-01-11T06:32:57.662Z,3.76
2019-01-11T06:35:27.224Z,3.72
2019-01-11T06:37:56.974Z,3.69
2019-01-11T06:40:26.455Z,3.64
2019-01-11T06:43:05.522Z,3.57
2019-01-11T06:45:37.220Z,3.51
2019-01-11T06:53:23.104Z,3.45
2019-01-11T06:55:52.668Z,3.44
2019-01-11T06:58:22.079Z,3.41
2019-01-11T07:00:51.574Z,3.41
2019-01-11T07:03:21.843Z,3.39
2019-01-11T07:05:52.227Z,3.35
2019-01-11T07:08:21.702Z,3.33
2019-01-11T07:10:51.334Z,3.31
2019-01-11T07:13:20.713Z,3.30
2019-01-11T07:15:50.150Z,3.29
2019-01-11T07:18:19.677Z,3.29
2019-01-11T07:20:49.075Z,3.26
2019-01-11T07:23:18.477Z,3.23
2019-01-11T07:28:34.939Z,3.20
2019-01-11T07:31:08.056Z,3.18
2019-01-11T07:33:40.730Z,3.12
2019-01-11T07:36:29.169Z,3.07
2019-01-11T07:39:38.048Z,3.03
2019-01-11T07:44:43.162Z,2.98
2019-01-11T07:47:12.662Z,2.96
2019-01-11T07:49:42.204Z,2.95
2019-01-11T07:52:11.745Z,2.95
2019-01-11T07:54:41.228Z,2.96
2019-01-11T07:57:10.741Z,2.96
2019-01-11T07:59:42.829Z,2.93
2019-01-11T08:04:47.861Z,2.91
2019-01-11T08:07:28.563Z,2.89
2019-01-11T08:10:09.690Z,2.86
2019-01-11T08:12:39.163Z,2.85
2019-01-11T08:15:29.285Z,2.87
2019-01-11T08:23:43.327Z,2.89
2019-01-11T08:26:24.856Z,2.90
2019-01-11T08:28:54.308Z,2.94
2019-01-11T08:31:23.844Z,2.95
2019-01-11T08:36:30.151Z,3.01
2019-01-11T08:38:59.582Z,3.02
2019-01-11T08:41:32.245Z,3.04
2019-01-11T08:44:01.685Z,3.08
2019-01-11T08:46:31.200Z,3.13
2019-01-11T08:49:00.660Z,3.17
2019-01-11T08:51:30.772Z,3.20
2019-01-11T08:54:00.175Z,3.23
2019-01-11T08:56:29.609Z,3.28
2019-01-11T08:58:59.292Z,3.30
2019-01-11T09:01:28.766Z,3.37
2019-01-11T09:03:58.372Z,3.43
2019-01-11T09:06:30.187Z,3.47
2019-01-11T09:08:59.575Z,3.48
2019-01-11T09:11:29.301Z,3.52
2019-01-11T09:13:59.166Z,3.56
2019-01-11T09:19:44.207Z,3.62
2019-01-11T09:22:13.637Z,3.64
2019-01-11T09:24:43.132Z,3.66
2019-01-11T09:27:31.514Z,3.68
2019-01-11T09:30:00.942Z,3.73
2019-01-11T09:32:30.483Z,3.77
2019-01-11T09:34:59.941Z,3.82
2019-01-11T09:37:29.382Z,3.87
2019-01-11T09:40:01.415Z,3.90
2019-01-11T09:42:30.903Z,3.94
2019-01-11T09:45:00.328Z,3.94
2019-01-11T09:47:29.789Z,3.97
2019-01-11T09:52:34.247Z,3.99
2019-01-11T09:55:04.399Z,4.02
2019-01-11T09:57:34.013Z,4.01
2019-01-11T10:00:03.817Z,3.99
2019-01-11T10:02:54.150Z,4.00
2019-01-11T10:05:35.338Z,4.00
2019-01-11T10:10:42.970Z,4.01
2019-01-11T10:13:31.423Z,4.01
2019-01-11T10:16:00.873Z,4.02
2019-01-11T10:18:30.328Z,4.05
2019-01-11T10:20:59.819Z,4.08
2019-01-11T10:23:29.471Z,4.13
2019-01-11T10:25:58.970Z,4.19
2019-01-11T10:28:28.385Z,4.18
2019-01-11T10:31:00.755Z,4.19
2019-01-11T10:33:35.948Z,4.19
2019-01-11T10:36:00.981Z,4.21
2019-01-11T10:38:30.443Z,4.21
2019-01-11T10:40:59.892Z,4.20
2019-01-11T10:43:29.391Z,4.15
2019-01-11T10:46:31.849Z,4.15
2019-01-11T10:49:01.395Z,4.15
2019-01-11T10:51:30.967Z,4.12
2019-01-11T10:54:00.453Z,4.10
2019-01-11T10:56:30.060Z,4.09
2019-01-11T10:58:59.497Z,4.03
2019-01-11T11:01:29.032Z,4.03
2019-01-11T11:03:58.926Z,4.11
2019-01-11T11:09:12.134Z,4.22
2019-01-11T11:14:35.117Z,4.49
2019-01-11T11:17:04.865Z,4.49
2019-01-11T11:19:34.275Z,4.55
2019-01-11T11:22:06.507Z,4.56
2019-01-11T11:24:35.963Z,4.60
2019-01-11T11:27:05.908Z,4.60
2019-01-11T11:34:56.251Z,4.71
2019-01-11T11:40:16.145Z,4.68
2019-01-11T11:42:45.691Z,4.78
2019-01-11T11:45:35.517Z,4.83
2019-01-11T11:48:13.755Z,4.81
2019-01-11T11:50:43.222Z,4.82
2019-01-11T11:53:12.737Z,4.80
2019-01-11T11:55:42.148Z,4.79
2019-01-11T11:58:11.813Z,4.74
2019-01-11T12:00:41.250Z,4.63
2019-01-11T12:03:29.813Z,4.68
2019-01-11T12:05:59.482Z,4.64
2019-01-11T12:08:29.450Z,4.60
2019-01-11T12:10:58.996Z,4.56
2019-01-11T12:13:28.444Z,4.50
2019-01-11T12:15:57.931Z,4.51
2019-01-11T12:21:04.040Z,4.47
2019-01-11T12:23:33.624Z,4.47
2019-01-11T12:26:03.357Z,4.41
2019-01-11T12:28:32.972Z,4.34
2019-01-11T12:31:02.442Z,4.36
2019-01-11T12:33:31.849Z,4.36
2019-01-11T12:36:01.285Z,4.33
2019-01-11T12:38:30.754Z,4.32
2019-01-11T12:41:00.357Z,4.32
2019-01-11T12:43:29.939Z,4.28
2019-01-11T12:45:59.437Z,4.27
2019-01-11T12:48:28.916Z,4.28
2019-01-11T12:50:58.320Z,4.30
2019-01-11T12:56:05.667Z,4.31
2019-01-11T12:58:46.259Z,4.30
2019-01-11T13:01:27.288Z,4.39
2019-01-11T13:04:11.967Z,4.39
2019-01-11T13:06:41.403Z,4.48
2019-01-11T13:09:11.060Z,4.41
2019-01-11T13:11:40.536Z,4.35
2019-01-11T13:14:29.290Z,4.18
2019-01-11T13:22:30.636Z,4.04
2019-01-11T13:25:00.236Z,4.00
2019-01-11T13:27:45.369Z,3.98
2019-01-11T13:30:03.478Z,3.96
2019-01-11T13:32:33.053Z,3.93
2019-01-11T13:35:16.478Z,3.89
2019-01-11T13:37:33.689Z,3.88
2019-01-11T13:42:37.752Z,3.78
2019-01-11T13:45:07.755Z,3.74
2019-01-11T13:47:37.176Z,3.70
2019-01-11T13:50:44.673Z,3.66
2019-01-11T13:53:26.423Z,3.60
2019-01-11T13:55:56.252Z,3.51
2019-01-11T13:58:25.989Z,3.44
2019-01-11T14:00:55.700Z,3.42
2019-01-11T14:06:01.282Z,3.32
2019-01-11T14:11:25.387Z,3.23
2019-01-11T14:13:55.036Z,3.17
2019-01-11T14:16:24.525Z,3.14
2019-01-11T14:18:54.214Z,3.13
2019-01-11T14:21:23.775Z,3.09
2019-01-11T14:23:53.230Z,3.05
2019-01-11T14:26:22.906Z,3.02
2019-01-11T14:28:52.349Z,2.97
2019-01-11T14:31:22.019Z,2.95
2019-01-11T14:36:26.509Z,2.84
2019-01-11T14:39:07.431Z,2.80
2019-01-11T14:41:37.523Z,2.76
2019-01-11T14:44:12.058Z,2.73
2019-01-11T14:47:00.751Z,2.64
2019-01-11T14:49:52.394Z,2.57
2019-01-11T14:52:22.042Z,2.57
2019-01-11T14:54:51.675Z,2.48
2019-01-11T14:57:21.668Z,2.48
2019-01-11T14:59:51.287Z,2.45
2019-01-11T15:02:21.036Z,2.41
2019-01-11T15:04:50.951Z,2.38
2019-01-11T15:07:20.486Z,2.31
2019-01-11T15:09:50.065Z,2.33
2019-01-11T15:12:21.917Z,2.31
2019-01-11T15:14:54.498Z,2.31
2019-01-11T15:17:43.108Z,2.26
2019-01-11T15:23:13.450Z,2.24
2019-01-11T15:25:51.954Z,2.10
2019-01-11T15:28:24.002Z,2.10
2019-01-11T15:30:56.180Z,2.15
2019-01-11T15:33:26.066Z,2.13
2019-01-11T15:35:55.764Z,2.12
2019-01-11T15:38:25.473Z,2.11
2019-01-11T15:40:55.234Z,2.09
2019-01-11T15:43:27.256Z,2.07
2019-01-11T15:48:59.897Z,2.07
2019-01-11T15:51:31.206Z,2.05
2019-01-11T15:56:50.249Z,2.10
2019-01-11T15:59:19.685Z,2.09
2019-01-11T16:02:10.309Z,2.10
2019-01-11T16:04:54.666Z,2.07
2019-01-11T16:07:24.317Z,2.12
2019-01-11T16:10:03.785Z,2.04
2019-01-11T16:13:17.122Z,2.10
2019-01-11T16:16:29.544Z,2.09
2019-01-11T16:18:59.428Z,2.05
2019-01-11T16:21:31.141Z,2.01
2019-01-11T16:24:00.688Z,2.01
2019-01-11T16:26:30.205Z,2.01
2019-01-11T16:28:59.774Z,2.01
2019-01-11T16:31:29.378Z,2.01
2019-01-11T16:34:06.342Z,2.01
2019-01-11T16:36:54.919Z,2.02
2019-01-11T16:39:24.400Z,2.02
2019-01-11T16:42:12.833Z,1.99
2019-01-11T16:44:42.748Z,1.95
2019-01-11T16:47:12.257Z,1.99
2019-01-11T16:50:00.851Z,2.00
2019-01-11T16:52:30.297Z,2.00
2019-01-11T16:55:18.806Z,1.95
2019-01-11T16:58:07.466Z,2.02
2019-01-11T17:00:37.323Z,2.02
2019-01-11T17:03:07.171Z,2.06
2019-01-11T17:05:36.682Z,2.06
2019-01-11T17:08:06.465Z,2.07
2019-01-11T17:10:36.006Z,2.10
2019-01-11T17:13:24.530Z,2.10
2019-01-11T17:18:47.808Z,2.12
2019-01-11T17:21:17.229Z,2.10
2019-01-11T17:23:46.657Z,2.11
2019-01-11T17:26:16.167Z,2.18
2019-01-11T17:28:45.668Z,2.20
2019-01-11T17:31:15.173Z,2.20
2019-01-11T17:33:44.720Z,2.19
2019-01-11T17:36:35.261Z,2.20
2019-01-11T17:39:25.389Z,2.20
2019-01-11T17:41:56.871Z,2.20
2019-01-11T17:44:29.400Z,2.17
2019-01-11T17:46:58.944Z,2.17
2019-01-11T17:49:28.390Z,2.15
2019-01-11T17:51:58.072Z,2.15
2019-01-11T17:54:27.575Z,2.18
2019-01-11T17:56:57.137Z,2.16
2019-01-11T17:59:26.878Z,2.15
2019-01-11T18:01:56.459Z,2.13
2019-01-11T18:04:26.050Z,2.13
2019-01-11T18:06:55.563Z,2.14
2019-01-11T18:09:25.187Z,2.13
2019-01-11T18:12:20.028Z,2.13
2019-01-11T18:17:40.579Z,2.12
2019-01-11T18:20:29.499Z,2.08
2019-01-11T18:22:58.953Z,2.11
2019-01-11T18:25:28.490Z,2.10
2019-01-11T18:27:57.967Z,2.10
2019-01-11T18:30:27.425Z,2.05
2019-01-11T18:32:57.130Z,2.11
2019-01-11T18:35:26.555Z,2.11
2019-01-11T18:38:08.042Z,2.11
2019-01-11T18:40:38.752Z,2.11
2019-01-11T18:43:08.446Z,2.08
2019-01-11T18:45:39.680Z,2.13
2019-01-11T18:48:09.105Z,2.11
2019-01-11T18:50:38.590Z,2.10
2019-01-11T18:53:13.738Z,2.07
2019-01-11T18:55:39.626Z,2.07
2019-01-11T18:58:09.030Z,2.12
2019-01-11T19:00:41.198Z,2.13
2019-01-11T19:03:10.718Z,2.14
2019-01-11T19:05:40.263Z,2.19
2019-01-11T19:08:09.881Z,2.17
2019-01-11T19:10:39.729Z,2.22
2019-01-11T19:13:09.329Z,2.25
2019-01-11T19:15:39.030Z,2.25
2019-01-11T19:18:08.401Z,2.25
2019-01-11T19:20:37.844Z,2.20
2019-01-11T19:23:07.433Z,2.21
2019-01-11T19:25:36.894Z,2.26
2019-01-11T19:28:06.317Z,2.27
2019-01-11T19:30:36.193Z,2.27
2019-01-11T19:33:26.020Z,2.28
2019-01-11T19:35:55.796Z,2.22
2019-01-11T19:38:25.418Z,2.28
2019-01-11T19:40:55.267Z,2.29
2019-01-11T19:43:43.813Z,2.28
2019-01-11T19:46:13.327Z,2.30
2019-01-11T19:49:04.456Z,2.31
2019-01-11T19:51:47.126Z,2.31
2019-01-11T19:54:28.438Z,2.22
2019-01-11T19:56:58.197Z,2.27
2019-01-11T19:59:27.811Z,2.27
2019-01-11T20:02:16.289Z,2.30
2019-01-11T20:04:57.236Z,2.29
2019-01-11T20:07:37.955Z,2.29
2019-01-11T20:10:19.517Z,2.25
2019-01-11T20:12:49.059Z,2.33
2019-01-11T20:15:38.890Z,2.33
2019-01-11T20:18:20.896Z,2.25
2019-01-11T20:20:50.917Z,2.25
2019-01-11T20:23:20.426Z,2.29
2019-01-11T20:25:50.029Z,2.23
2019-01-11T20:28:19.486Z,2.26
2019-01-11T20:30:48.943Z,2.26
2019-01-11T20:33:18.417Z,2.24
2019-01-11T20:35:47.860Z,2.24
2019-01-11T20:38:17.636Z,2.26
2019-01-11T20:40:47.306Z,2.25
2019-01-11T20:43:16.740Z,2.26
2019-01-11T20:45:46.147Z,2.25
2019-01-11T20:48:15.691Z,2.22
2019-01-11T20:51:04.367Z,2.16
2019-01-11T20:53:34.072Z,2.16
2019-01-11T20:56:03.497Z,2.17
2019-01-11T20:58:32.920Z,2.14
2019-01-11T21:01:02.794Z,2.12
2019-01-11T21:03:32.217Z,2.06
2019-01-11T21:06:01.682Z,2.02
2019-01-11T21:08:31.096Z,2.07
2019-01-11T21:11:23.710Z,2.04
2019-01-11T21:13:53.549Z,2.04
2019-01-11T21:16:42.311Z,2.03
2019-01-11T21:19:11.853Z,2.02
2019-01-11T21:21:44.105Z,2.02
2019-01-11T21:24:13.931Z,2.00
2019-01-11T21:26:43.543Z,2.02
2019-01-11T21:29:12.976Z,2.00
2019-01-11T21:31:42.770Z,2.00
2019-01-11T21:34:12.826Z,2.00
2019-01-11T21:36:42.323Z,2.01
2019-01-11T21:39:11.741Z,2.04
2019-01-11T21:41:41.190Z,2.06
2019-01-11T21:44:10.778Z,2.07
2019-01-11T21:46:40.148Z,2.08
2019-01-11T21:49:09.931Z,2.09
2019-01-11T21:51:39.381Z,2.09
2019-01-11T21:54:08.783Z,2.05
2019-01-11T21:56:38.371Z,2.09
2019-01-11T21:59:07.791Z,2.09
2019-01-11T22:04:26.052Z,2.07
2019-01-11T22:06:55.464Z,2.02
2019-01-11T22:09:24.914Z,2.05
2019-01-11T22:11:54.409Z,1.99
2019-01-11T22:14:23.921Z,2.01
2019-01-11T22:16:53.360Z,2.00
2019-01-11T22:19:23.392Z,2.00
2019-01-11T22:21:53.024Z,1.97
2019-01-11T22:24:22.669Z,1.93
2019-01-11T22:26:52.347Z,1.87
2019-01-11T22:29:41.119Z,1.84
2019-01-11T22:32:10.609Z,1.84
2019-01-11T22:34:40.063Z,1.71
2019-01-11T22:37:09.535Z,1.70
2019-01-11T22:39:58.116Z,1.65
2019-01-11T22:42:27.766Z,1.57
2019-01-11T22:44:57.403Z,1.57
2019-01-11T22:47:27.026Z,1.52
2019-01-11T22:49:56.453Z,1.54
2019-01-11T22:52:45.203Z,1.51
2019-01-11T22:55:36.195Z,1.51
2019-01-11T22:58:06.082Z,1.47
2019-01-11T23:00:59.752Z,1.47
2019-01-11T23:03:36.635Z,1.45
2019-01-11T23:06:43.077Z,1.45
2019-01-11T23:09:15.302Z,1.45
2019-01-11T23:12:23.017Z,1.43
2019-01-11T23:15:04.743Z,1.43
2019-01-11T23:17:47.514Z,1.43
2019-01-11T23:20:17.152Z,1.38
2019-01-11T23:25:46.235Z,1.43
2019-01-11T23:28:15.887Z,1.43
2019-01-11T23:31:04.364Z,1.36
2019-01-11T23:33:34.053Z,1.36
2019-01-11T23:36:03.619Z,1.40
2019-01-11T23:38:52.234Z,1.41
2019-01-11T23:41:21.915Z,1.41
2019-01-11T23:43:51.397Z,1.41
2019-01-11T23:46:20.876Z,1.42
2019-01-11T23:48:50.330Z,1.42
2019-01-11T23:51:20.053Z,1.41
2019-01-11T23:53:50.721Z,1.43
2019-01-11T23:56:32.875Z,1.44
2019-01-11T23:59:02.771Z,1.44
